aviador You're here:

KGMU Decoded Metar

GREENVILLE in SC, USA
Report Time2018-02-25 22:53:00
UTC Time2018-02-25 23:36:09
Flight Rules vfr VFR
Wind180° at 08 kt
W.Decomp.*RWY 19: 8.0 kt HW 0.7 kt LCW
RWY 10: 0.7 kt HW 8.0 kt RCW
W.Rank180° ranks 22
Current wind is above 180° avg. (6.0)
Visibility9999 m
Phenomena:N/A
Clouds:Overcast 095 Hf
Expected CloudBase > 2,400 ft AGL from Temp-Dew spread
Ceiling9,500 ft
Temp19°C (ISA +6)
Dew Point13°C (68% RH)
AAT17.0°C
QNH1019 hPa
Density Alt1,742 ft
Elevation1,033 ft
Report Wrong Elevation
Raw Report
METAR KGMU 252253Z 18008KT 10SM OVC095 19/13 A3008 RMK AO2 SLP179 T01940133=

Extra information for KGMU:More info

Metar Taf Metar & Taf Last 4 Metars F.Rules Stats Wind Profile Meteogram Temp Stats Airport Information Weather charts Add Link Nearby VenuesMetar ALERT Operation Metar Decoded Social comments

AIRNAV info for KGMU